Meteorología y climatología de Navarra
Datos de la estación - Meteo Navarra

Estación de Iñarbegi GN

Altitud 585 m.


Datos desde el 11/01/2019 hasta el 12/01/2019 en horario solar
Los datos son PROVISIONALES

Anterior Página 1 de 1 Siguiente Descargar: Formato para Excel 2000 o superior   Formato csv   Formato para OpenOffice Calc
Fecha Temperatura Humedad relativa Radiación global Insolación Precipitación Velocidad viento 10 m Velocidad viento 10 m Dirección viento 10 m
ºC % W/m² s l/m² m/s km/h º
11/01/2019 0:00 -1.7 90 - - - - 0.0 - - - - - -
11/01/2019 0:10 -1.8 90 - - - - 0.0 - - - - - -
11/01/2019 0:20 -1.9 90 - - - - 0.0 - - - - - -
11/01/2019 0:30 -2.1 92 - - - - 0.0 - - - - - -
11/01/2019 0:40 -2.2 93 - - - - 0.0 - - - - - -
11/01/2019 0:50 -2.3 93 - - - - 0.0 - - - - - -
11/01/2019 1:00 -2.3 94 - - - - 0.0 - - - - - -
11/01/2019 1:10 -2.3 95 - - - - 0.0 - - - - - -
11/01/2019 1:20 -2.3 95 - - - - 0.0 - - - - - -
11/01/2019 1:30 -2.3 95 - - - - 0.0 - - - - - -
11/01/2019 1:40 -2.3 96 - - - - 0.0 - - - - - -
11/01/2019 1:50 -2.4 96 - - - - 0.0 - - - - - -
11/01/2019 2:00 -2.5 97 - - - - 0.0 - - - - - -
11/01/2019 2:10 -2.4 98 - - - - 0.0 - - - - - -
11/01/2019 2:20 -2.5 98 - - - - 0.0 - - - - - -
11/01/2019 2:30 -2.5 99 - - - - 0.0 - - - - - -
11/01/2019 2:40 -2.5 99 - - - - 0.0 - - - - - -
11/01/2019 2:50 -2.4 99 - - - - 0.0 - - - - - -
11/01/2019 3:00 -2.4 99 - - - - 0.0 - - - - - -
11/01/2019 3:10 -2.4 99 - - - - 0.0 - - - - - -
11/01/2019 3:20 -2.5 98 - - - - 0.0 - - - - - -
11/01/2019 3:30 -2.6 98 - - - - 0.0 - - - - - -
11/01/2019 3:40 -2.7 99 - - - - 0.0 - - - - - -
11/01/2019 3:50 -2.9 100 - - - - 0.0 - - - - - -
11/01/2019 4:00 -3.1 100 - - - - 0.0 - - - - - -
11/01/2019 4:10 -3.2 100 - - - - 0.0 - - - - - -
11/01/2019 4:20 -3.2 100 - - - - 0.0 - - - - - -
11/01/2019 4:30 -3.2 99 - - - - 0.0 - - - - - -
11/01/2019 4:40 -3.2 99 - - - - 0.0 - - - - - -
11/01/2019 4:50 -3.2 100 - - - - 0.0 - - - - - -
11/01/2019 5:00 -3.2 100 - - - - 0.0 - - - - - -
11/01/2019 5:10 -3.2 100 - - - - 0.0 - - - - - -
11/01/2019 5:20 -3.1 100 - - - - 0.0 - - - - - -
11/01/2019 5:30 -3.0 100 - - - - 0.0 - - - - - -
11/01/2019 5:40 -3.0 100 - - - - 0.0 - - - - - -
11/01/2019 5:50 -2.9 100 - - - - 0.0 - - - - - -
11/01/2019 6:00 -2.8 100 - - - - 0.0 - - - - - -
11/01/2019 6:10 -2.8 100 - - - - 0.0 - - - - - -
11/01/2019 6:20 -2.9 100 - - - - 0.0 - - - - - -
11/01/2019 6:30 -2.9 100 - - - - 0.0 - - - - - -
11/01/2019 6:40 -2.9 100 - - - - 0.0 - - - - - -
11/01/2019 6:50 -3.0 100 - - - - 0.0 - - - - - -
11/01/2019 7:00 -3.0 100 - - - - 0.0 - - - - - -
11/01/2019 7:10 -3.1 100 - - - - 0.0 - - - - - -
11/01/2019 7:20 -3.0 100 - - - - 0.0 - - - - - -
11/01/2019 7:30 -3.0 100 - - - - 0.0 - - - - - -
11/01/2019 7:40 -2.9 100 - - - - 0.0 - - - - - -
11/01/2019 7:50 -2.9 99 - - - - 0.0 - - - - - -
11/01/2019 8:00 -2.8 99 - - - - 0.0 - - - - - -
11/01/2019 8:10 -2.6 97 - - - - 0.0 - - - - - -
11/01/2019 8:20 -2.5 97 - - - - 0.0 - - - - - -
11/01/2019 8:30 -2.4 97 - - - - 0.0 - - - - - -
11/01/2019 8:40 -2.2 97 - - - - 0.0 - - - - - -
11/01/2019 8:50 -2.1 96 - - - - 0.0 - - - - - -
11/01/2019 9:00 -1.9 94 - - - - 0.0 - - - - - -
11/01/2019 9:10 -1.8 92 - - - - 0.0 - - - - - -
11/01/2019 9:20 -1.6 92 - - - - 0.0 - - - - - -
11/01/2019 9:30 -1.4 91 - - - - 0.0 - - - - - -
11/01/2019 9:40 -1.3 90 - - - - 0.0 - - - - - -
11/01/2019 9:50 -1.1 89 - - - - 0.0 - - - - - -
11/01/2019 10:00 -0.9 89 - - - - 0.0 - - - - - -
11/01/2019 10:10 -0.7 89 - - - - 0.0 - - - - - -
11/01/2019 10:20 -0.6 88 - - - - 0.0 - - - - - -
11/01/2019 10:30 -0.5 88 - - - - 0.0 - - - - - -
11/01/2019 10:40 -0.4 87 - - - - 0.0 - - - - - -
11/01/2019 10:50 -0.2 86 - - - - 0.0 - - - - - -
11/01/2019 11:00 0.1 85 - - - - 0.0 - - - - - -
11/01/2019 11:10 0.3 85 - - - - 0.0 - - - - - -
11/01/2019 11:20 0.5 83 - - - - 0.0 - - - - - -
11/01/2019 11:30 0.6 81 - - - - 0.0 - - - - - -
11/01/2019 11:40 0.8 79 - - - - 0.0 - - - - - -
11/01/2019 11:50 1.3 74 - - - - 0.0 - - - - - -
11/01/2019 12:00 1.9 69 - - - - 0.0 - - - - - -
11/01/2019 12:10 1.8 65 - - - - 0.0 - - - - - -
11/01/2019 12:20 2.0 63 - - - - 0.0 - - - - - -
11/01/2019 12:30 2.0 60 - - - - 0.0 - - - - - -
11/01/2019 12:40 2.1 54 - - - - 0.0 - - - - - -
11/01/2019 12:50 2.3 51 - - - - 0.0 - - - - - -
11/01/2019 13:00 3.1 49 - - - - 0.0 - - - - - -
11/01/2019 13:10 4.1 44 - - - - 0.0 - - - - - -
11/01/2019 13:20 4.2 45 - - - - 0.0 - - - - - -
11/01/2019 13:30 3.9 44 - - - - 0.0 - - - - - -
11/01/2019 13:40 2.7 48 - - - - 0.0 - - - - - -
11/01/2019 13:50 2.3 47 - - - - 0.0 - - - - - -
11/01/2019 14:00 2.4 50 - - - - 0.0 - - - - - -
11/01/2019 14:10 2.8 51 - - - - 0.0 - - - - - -
11/01/2019 14:20 3.8 50 - - - - 0.0 - - - - - -
11/01/2019 14:30 4.3 50 - - - - 0.0 - - - - - -
11/01/2019 14:40 4.9 48 - - - - 0.0 - - - - - -
11/01/2019 14:50 4.4 51 - - - - 0.0 - - - - - -
11/01/2019 15:00 3.3 52 - - - - 0.0 - - - - - -
11/01/2019 15:10 2.1 58 - - - - 0.0 - - - - - -
11/01/2019 15:20 2.2 59 - - - - 0.0 - - - - - -
11/01/2019 15:30 2.2 59 - - - - 0.0 - - - - - -
11/01/2019 15:40 1.7 61 - - - - 0.0 - - - - - -
11/01/2019 15:50 1.5 62 - - - - 0.0 - - - - - -
11/01/2019 16:00 1.5 63 - - - - 0.0 - - - - - -
11/01/2019 16:10 1.4 62 - - - - 0.0 - - - - - -
11/01/2019 16:20 1.4 62 - - - - 0.0 - - - - - -
11/01/2019 16:30 1.3 63 - - - - 0.0 - - - - - -
11/01/2019 16:40 1.2 63 - - - - 0.0 - - - - - -
11/01/2019 16:50 1.2 63 - - - - 0.0 - - - - - -
11/01/2019 17:00 1.2 63 - - - - 0.0 - - - - - -
11/01/2019 17:10 1.1 63 - - - - 0.0 - - - - - -
11/01/2019 17:20 1.0 64 - - - - 0.0 - - - - - -
11/01/2019 17:30 0.9 65 - - - - 0.0 - - - - - -
11/01/2019 17:40 0.8 66 - - - - 0.0 - - - - - -
11/01/2019 17:50 0.7 67 - - - - 0.0 - - - - - -
11/01/2019 18:00 0.7 66 - - - - 0.0 - - - - - -
11/01/2019 18:10 0.7 67 - - - - 0.0 - - - - - -
11/01/2019 18:20 0.6 68 - - - - 0.0 - - - - - -
11/01/2019 18:30 0.5 69 - - - - 0.0 - - - - - -
11/01/2019 18:40 0.5 69 - - - - 0.0 - - - - - -
11/01/2019 18:50 0.8 68 - - - - 0.0 - - - - - -
11/01/2019 19:00 0.5 69 - - - - 0.0 - - - - - -
11/01/2019 19:10 0.3 70 - - - - 0.0 - - - - - -
11/01/2019 19:20 0.1 71 - - - - 0.0 - - - - - -
11/01/2019 19:30 0.1 70 - - - - 0.0 - - - - - -
11/01/2019 19:40 -0.0 71 - - - - 0.0 - - - - - -
11/01/2019 19:50 -0.1 71 - - - - 0.0 - - - - - -
11/01/2019 20:00 -0.1 71 - - - - 0.0 - - - - - -
11/01/2019 20:10 -0.0 71 - - - - 0.0 - - - - - -
11/01/2019 20:20 -0.0 71 - - - - 0.0 - - - - - -
11/01/2019 20:30 0.0 71 - - - - 0.0 - - - - - -
11/01/2019 20:40 0.1 70 - - - - 0.0 - - - - - -
11/01/2019 20:50 0.3 70 - - - - 0.0 - - - - - -
11/01/2019 21:00 0.5 70 - - - - 0.0 - - - - - -
11/01/2019 21:10 0.7 70 - - - - 0.0 - - - - - -
11/01/2019 21:20 0.7 70 - - - - 0.0 - - - - - -
11/01/2019 21:30 0.6 71 - - - - 0.0 - - - - - -
11/01/2019 21:40 0.9 70 - - - - 0.0 - - - - - -
11/01/2019 21:50 0.9 69 - - - - 0.0 - - - - - -
11/01/2019 22:00 1.2 73 - - - - 0.0 - - - - - -
11/01/2019 22:10 1.2 75 - - - - 0.0 - - - - - -
11/01/2019 22:20 1.1 74 - - - - 0.0 - - - - - -
11/01/2019 22:30 1.2 75 - - - - 0.0 - - - - - -
11/01/2019 22:40 1.0 75 - - - - 0.0 - - - - - -
11/01/2019 22:50 0.8 77 - - - - 0.0 - - - - - -
11/01/2019 23:00 0.6 77 - - - - 0.0 - - - - - -
11/01/2019 23:10 0.8 78 - - - - 0.0 - - - - - -
11/01/2019 23:20 1.0 77 - - - - 0.0 - - - - - -
11/01/2019 23:30 1.3 76 - - - - 0.0 - - - - - -
11/01/2019 23:40 0.9 76 - - - - 0.0 - - - - - -
11/01/2019 23:50 0.7 78 - - - - 0.0 - - - - - -
Anterior Página 1 de 1 Siguiente

NOTA: Tipo de datos según el color:
   - Valores diarios o 10 minutos correctos
   - Valores diarios calculados a partir de un número de datos 10 minutos menor que 144 y mayor que 120, o de un número de datos semihorarios menor que 48 y mayor que 40 (caso de las estaciones de Riegos de Navarra y del MARM)
   - Valores diez minutos estimados


Contacto        Enlaces        Aviso legal